Time;durP1;ratioP1;P1;durP2;ratioP2;P2;SDS_P1;SDS_P2;PMS_P1;PMS_P2;Temp;Humidity;BMP_temperature;BMP_pressure;BME280_temperature;BME280_humidity;BME280_pressure;Samples;Min_cycle;Max_cycle;Signal;HPM_P1;HPM_P2
2023/08/13 00:02:02;;;;;;;12.93;7.82;;;;;;;;;;4892870;29;20064;-62
2023/08/13 00:04:28;;;;;;;13.57;7.75;;;;;;;;;;4894950;29;20689;-62
2023/08/13 00:06:53;;;;;;;12.15;7.53;;;;;;;;;;4895040;29;20435;-62
2023/08/13 00:09:19;;;;;;;17.05;8.23;;;;;;;;;;4893243;29;20036;-63
2023/08/13 00:11:45;;;;;;;15.82;7.97;;;;;;;;;;4897646;29;20473;-63
2023/08/13 00:14:10;;;;;;;13.50;7.45;;;;;;;;;;4882546;29;20075;-64
2023/08/13 00:16:36;;;;;;;19.50;7.60;;;;;;;;;;4899051;29;20040;-63
2023/08/13 00:19:04;;;;;;;14.50;7.93;;;;;;;;;;4898142;29;20046;-63
2023/08/13 00:21:30;;;;;;;11.15;7.10;;;;;;;;;;4879608;29;20112;-63
2023/08/13 00:23:55;;;;;;;12.80;7.43;;;;;;;;;;4899252;29;20116;-63
2023/08/13 00:26:21;;;;;;;13.38;6.78;;;;;;;;;;4899183;29;20056;-63
2023/08/13 00:28:47;;;;;;;15.32;7.35;;;;;;;;;;4897295;29;20359;-63
2023/08/13 00:31:13;;;;;;;12.95;6.68;;;;;;;;;;4897955;29;20379;-63
2023/08/13 00:33:38;;;;;;;12.75;6.53;;;;;;;;;;4895636;29;20065;-63
2023/08/13 00:36:04;;;;;;;11.07;6.00;;;;;;;;;;4897163;29;20080;-63
2023/08/13 00:38:29;;;;;;;11.30;6.50;;;;;;;;;;4896804;29;20032;-63
2023/08/13 00:40:55;;;;;;;11.95;6.50;;;;;;;;;;4898782;29;20514;-62
2023/08/13 00:43:20;;;;;;;14.82;6.53;;;;;;;;;;4897521;29;20028;-63
2023/08/13 00:45:46;;;;;;;9.45;6.03;;;;;;;;;;4897796;29;20034;-62
2023/08/13 00:48:11;;;;;;;12.93;6.55;;;;;;;;;;4898151;29;20040;-63
2023/08/13 00:50:37;;;;;;;11.43;6.35;;;;;;;;;;4897675;29;20032;-63
2023/08/13 00:53:08;;;;;;;10.32;6.55;;;;;;;;;;4899731;29;20035;-62
2023/08/13 00:55:33;;;;;;;12.75;6.40;;;;;;;;;;4897083;29;20028;-62
2023/08/13 00:58:00;;;;;;;11.75;6.80;;;;;;;;;;4892963;29;20397;-62
2023/08/13 01:00:26;;;;;;;12.77;7.00;;;;;;;;;;4896525;29;20095;-62
2023/08/13 01:02:52;;;;;;;14.80;6.97;;;;;;;;;;4881423;29;20032;-62
2023/08/13 01:05:19;;;;;;;17.67;6.93;;;;;;;;;;4897013;29;20047;-62
2023/08/13 01:07:44;;;;;;;14.45;6.85;;;;;;;;;;4895944;29;20123;-62
2023/08/13 01:10:19;;;;;;;13.82;7.10;;;;;;;;;;4897768;29;20062;-63
2023/08/13 01:12:59;;;;;;;13.55;6.38;;;;;;;;;;4886544;29;20032;-62
2023/08/13 01:15:31;;;;;;;14.60;7.07;;;;;;;;;;4896810;29;20032;-62
2023/08/13 01:17:58;;;;;;;17.33;7.38;;;;;;;;;;4898070;29;20139;-62
2023/08/13 01:20:32;;;;;;;12.05;6.93;;;;;;;;;;4879383;29;20044;-63
2023/08/13 01:22:57;;;;;;;15.57;7.20;;;;;;;;;;4876237;29;20394;-62
2023/08/13 01:25:25;;;;;;;13.60;7.03;;;;;;;;;;4891620;29;20040;-62
2023/08/13 01:28:08;;;;;;;11.88;6.85;;;;;;;;;;4897013;29;20036;-62
2023/08/13 01:30:39;;;;;;;15.93;6.80;;;;;;;;;;4896942;29;20659;-62
2023/08/13 01:33:07;;;;;;;10.70;6.57;;;;;;;;;;4896111;29;20406;-62
2023/08/13 01:35:34;;;;;;;13.90;7.60;;;;;;;;;;4895934;29;20055;-62
2023/08/13 01:38:00;;;;;;;12.23;7.47;;;;;;;;;;4896126;29;20068;-62
2023/08/13 01:40:26;;;;;;;13.18;6.85;;;;;;;;;;4896994;29;20032;-62
2023/08/13 01:42:52;;;;;;;12.15;7.25;;;;;;;;;;4899191;29;20033;-62
2023/08/13 01:45:18;;;;;;;13.15;7.75;;;;;;;;;;4894618;29;20485;-63
2023/08/13 01:47:43;;;;;;;11.88;7.47;;;;;;;;;;4897523;29;20987;-62
2023/08/13 01:50:09;;;;;;;13.68;7.50;;;;;;;;;;4896927;29;20039;-62
2023/08/13 01:52:35;;;;;;;15.50;7.13;;;;;;;;;;4893504;29;20603;-63
2023/08/13 01:55:01;;;;;;;14.32;6.80;;;;;;;;;;4895715;29;20036;-64
2023/08/13 01:57:29;;;;;;;14.82;7.35;;;;;;;;;;4892747;29;20439;-63
2023/08/13 01:59:54;;;;;;;13.82;7.70;;;;;;;;;;4896693;29;20036;-63
2023/08/13 02:02:20;;;;;;;14.45;7.90;;;;;;;;;;4894909;29;20047;-63
2023/08/13 02:04:45;;;;;;;12.27;8.10;;;;;;;;;;4896505;29;20036;-63
2023/08/13 02:07:11;;;;;;;14.07;8.27;;;;;;;;;;4895716;29;20033;-63
2023/08/13 02:09:36;;;;;;;13.70;8.20;;;;;;;;;;4894462;29;20245;-63
2023/08/13 02:12:01;;;;;;;13.73;8.43;;;;;;;;;;4881610;29;20037;-63
2023/08/13 02:14:27;;;;;;;16.40;8.10;;;;;;;;;;4896837;29;20122;-63
2023/08/13 02:16:53;;;;;;;15.15;7.88;;;;;;;;;;4897033;29;20028;-63
2023/08/13 02:19:18;;;;;;;14.90;7.70;;;;;;;;;;4894223;29;20036;-63
2023/08/13 02:21:44;;;;;;;17.88;7.28;;;;;;;;;;4893796;29;20036;-63
2023/08/13 02:24:09;;;;;;;16.05;8.20;;;;;;;;;;4897291;29;20040;-63
2023/08/13 02:26:35;;;;;;;14.68;7.75;;;;;;;;;;4896962;29;20044;-63
2023/08/13 02:29:00;;;;;;;11.60;7.40;;;;;;;;;;4895392;29;20029;-63
2023/08/13 02:31:25;;;;;;;11.82;6.97;;;;;;;;;;4896508;29;20032;-63
2023/08/13 02:33:51;;;;;;;17.00;7.38;;;;;;;;;;4897497;29;20036;-63
2023/08/13 02:36:16;;;;;;;15.50;7.40;;;;;;;;;;4894397;29;20458;-63
2023/08/13 02:38:41;;;;;;;14.23;6.85;;;;;;;;;;4888533;29;20052;-64
2023/08/13 02:41:07;;;;;;;14.05;6.35;;;;;;;;;;4891476;29;20068;-63
2023/08/13 02:43:49;;;;;;;13.32;6.75;;;;;;;;;;4896928;29;20033;-63
2023/08/13 02:46:15;;;;;;;14.50;6.95;;;;;;;;;;4896302;29;20044;-62
2023/08/13 02:48:40;;;;;;;13.73;7.00;;;;;;;;;;4895449;29;20450;-62
2023/08/13 02:51:05;;;;;;;13.85;6.93;;;;;;;;;;4894401;29;20041;-62
2023/08/13 02:53:31;;;;;;;13.68;6.70;;;;;;;;;;4895802;29;20435;-63
2023/08/13 02:55:56;;;;;;;13.18;6.72;;;;;;;;;;4895606;29;20035;-63
2023/08/13 02:58:22;;;;;;;11.40;6.75;;;;;;;;;;4893185;29;20078;-63
2023/08/13 03:00:47;;;;;;;12.02;6.90;;;;;;;;;;4895574;29;20040;-63
2023/08/13 03:03:13;;;;;;;13.02;6.93;;;;;;;;;;4893431;29;20797;-61
2023/08/13 03:05:38;;;;;;;12.98;7.15;;;;;;;;;;4891991;29;20032;-62
2023/08/13 03:08:04;;;;;;;12.75;7.03;;;;;;;;;;4901931;29;20032;-64
2023/08/13 03:10:30;;;;;;;12.73;7.45;;;;;;;;;;4895013;29;20526;-63
2023/08/13 03:12:56;;;;;;;13.93;7.55;;;;;;;;;;4897054;29;20032;-62
2023/08/13 03:15:21;;;;;;;16.98;7.35;;;;;;;;;;4895487;29;20040;-63
2023/08/13 03:17:47;;;;;;;17.27;7.55;;;;;;;;;;4897320;29;20139;-63
2023/08/13 03:20:12;;;;;;;16.25;7.93;;;;;;;;;;4893686;29;20149;-63
2023/08/13 03:22:38;;;;;;;11.73;7.47;;;;;;;;;;4896551;29;20096;-63
2023/08/13 03:25:04;;;;;;;13.50;7.50;;;;;;;;;;4895982;29;20040;-63
2023/08/13 03:27:30;;;;;;;12.63;7.35;;;;;;;;;;4884023;29;20037;-63
2023/08/13 03:29:55;;;;;;;11.27;6.78;;;;;;;;;;4879951;29;20068;-63
2023/08/13 03:32:20;;;;;;;12.35;7.03;;;;;;;;;;4896947;29;20474;-63
2023/08/13 03:34:48;;;;;;;14.63;7.38;;;;;;;;;;4879031;29;20123;-62
2023/08/13 03:37:13;;;;;;;15.98;7.43;;;;;;;;;;4895265;29;20040;-62
2023/08/13 03:39:39;;;;;;;17.17;7.43;;;;;;;;;;4871851;29;20035;-62
2023/08/13 03:42:04;;;;;;;15.20;7.53;;;;;;;;;;4893531;29;20435;-62
2023/08/13 03:44:30;;;;;;;15.05;7.30;;;;;;;;;;4894098;29;20134;-63
2023/08/13 03:46:55;;;;;;;18.98;6.88;;;;;;;;;;4895613;29;20040;-64
2023/08/13 03:49:20;;;;;;;12.48;7.10;;;;;;;;;;4896084;29;20032;-63
2023/08/13 03:51:46;;;;;;;12.52;6.88;;;;;;;;;;4894111;29;20032;-63
2023/08/13 03:54:11;;;;;;;15.85;7.35;;;;;;;;;;4892751;29;20119;-63
2023/08/13 03:56:37;;;;;;;18.90;7.63;;;;;;;;;;4894689;29;20037;-62
2023/08/13 03:59:02;;;;;;;11.88;6.47;;;;;;;;;;4894921;29;20037;-62
2023/08/13 04:01:27;;;;;;;14.00;6.82;;;;;;;;;;4894978;29;20115;-62
2023/08/13 04:03:53;;;;;;;13.75;6.97;;;;;;;;;;4894858;29;20462;-64
2023/08/13 04:06:18;;;;;;;11.90;6.80;;;;;;;;;;4888584;29;20119;-64
2023/08/13 04:08:43;;;;;;;14.32;7.10;;;;;;;;;;4895802;29;20609;-64
2023/08/13 04:11:09;;;;;;;14.00;6.80;;;;;;;;;;4893973;29;20112;-62
2023/08/13 04:13:34;;;;;;;11.98;7.03;;;;;;;;;;4877155;29;20398;-64
2023/08/13 04:16:00;;;;;;;14.45;7.13;;;;;;;;;;4894539;29;20462;-64
2023/08/13 04:18:25;;;;;;;13.75;7.10;;;;;;;;;;4894505;29;20041;-64
2023/08/13 04:20:51;;;;;;;11.82;6.93;;;;;;;;;;4894933;29;20416;-63
2023/08/13 04:23:16;;;;;;;15.73;7.25;;;;;;;;;;4895428;29;20033;-62
2023/08/13 04:25:41;;;;;;;19.02;10.15;;;;;;;;;;4894853;29;20270;-63
2023/08/13 04:28:07;;;;;;;15.13;8.55;;;;;;;;;;4894032;29;20036;-63
2023/08/13 04:30:32;;;;;;;15.85;7.35;;;;;;;;;;4893306;29;20041;-63
2023/08/13 04:32:58;;;;;;;14.50;7.63;;;;;;;;;;4894318;29;20041;-63
2023/08/13 04:35:24;;;;;;;12.10;6.80;;;;;;;;;;4893736;29;20453;-64
2023/08/13 04:37:50;;;;;;;15.68;7.18;;;;;;;;;;4893627;29;20045;-63
2023/08/13 04:40:16;;;;;;;13.23;7.05;;;;;;;;;;4893471;29;20040;-63
2023/08/13 04:42:42;;;;;;;16.02;7.40;;;;;;;;;;4894636;29;20359;-63
2023/08/13 04:45:08;;;;;;;16.63;7.57;;;;;;;;;;4893078;29;20048;-63
2023/08/13 04:47:33;;;;;;;18.40;7.72;;;;;;;;;;4894325;29;20040;-63
2023/08/13 04:49:59;;;;;;;14.45;6.65;;;;;;;;;;4878047;29;20052;-63
2023/08/13 04:52:24;;;;;;;13.90;7.40;;;;;;;;;;4895243;29;20478;-63
2023/08/13 04:54:49;;;;;;;15.52;7.10;;;;;;;;;;4895741;29;20120;-63
2023/08/13 04:57:15;;;;;;;12.90;6.50;;;;;;;;;;4897432;29;20051;-63
2023/08/13 04:59:40;;;;;;;13.30;6.47;;;;;;;;;;4897067;29;20398;-63
2023/08/13 05:02:06;;;;;;;14.15;6.85;;;;;;;;;;4896732;29;20111;-63
2023/08/13 05:04:31;;;;;;;16.77;7.13;;;;;;;;;;4899382;29;20462;-63
2023/08/13 05:06:57;;;;;;;12.95;6.55;;;;;;;;;;4899714;29;20033;-63
2023/08/13 05:09:22;;;;;;;17.30;7.00;;;;;;;;;;4899783;29;20041;-62
2023/08/13 05:11:51;;;;;;;15.25;6.40;;;;;;;;;;4897257;29;20032;-64
2023/08/13 05:14:16;;;;;;;16.67;6.35;;;;;;;;;;4899880;29;20128;-63
2023/08/13 05:16:41;;;;;;;12.98;6.75;;;;;;;;;;4882055;29;20119;-64
2023/08/13 05:19:07;;;;;;;16.27;6.45;;;;;;;;;;4898552;29;20048;-64
2023/08/13 05:21:32;;;;;;;11.27;6.70;;;;;;;;;;4897062;29;20028;-63
2023/08/13 05:23:58;;;;;;;12.15;6.40;;;;;;;;;;4898862;29;20367;-65
2023/08/13 05:26:23;;;;;;;12.27;6.65;;;;;;;;;;4898427;29;20145;-63
2023/08/13 05:28:49;;;;;;;13.20;6.45;;;;;;;;;;4898361;29;20036;-63
2023/08/13 05:31:14;;;;;;;10.50;6.07;;;;;;;;;;4898949;29;20117;-62
2023/08/13 05:33:40;;;;;;;13.57;6.55;;;;;;;;;;4897604;29;20390;-63
2023/08/13 05:36:05;;;;;;;11.63;6.50;;;;;;;;;;4880499;29;20051;-63
2023/08/13 05:38:32;;;;;;;13.15;5.90;;;;;;;;;;4898467;29;20536;-64
2023/08/13 05:40:58;;;;;;;10.27;6.03;;;;;;;;;;4899004;29;20036;-63
2023/08/13 05:43:23;;;;;;;12.77;6.07;;;;;;;;;;4899106;29;20056;-64
2023/08/13 05:45:48;;;;;;;13.10;5.70;;;;;;;;;;4896104;29;20115;-64
2023/08/13 05:48:14;;;;;;;12.77;6.07;;;;;;;;;;4898895;29;20418;-63
2023/08/13 05:50:39;;;;;;;12.68;6.00;;;;;;;;;;4881058;29;20029;-64
2023/08/13 05:53:05;;;;;;;12.35;5.82;;;;;;;;;;4898265;29;20033;-64
2023/08/13 05:55:30;;;;;;;11.90;5.18;;;;;;;;;;4879987;29;20407;-70
2023/08/13 05:57:56;;;;;;;15.30;5.47;;;;;;;;;;4898463;29;20061;-64
2023/08/13 06:00:22;;;;;;;12.30;5.70;;;;;;;;;;4898639;29;20108;-63
2023/08/13 06:02:47;;;;;;;11.15;5.47;;;;;;;;;;4897473;29;20060;-64
2023/08/13 06:05:13;;;;;;;12.02;5.47;;;;;;;;;;4897269;29;20119;-64
2023/08/13 06:07:38;;;;;;;9.40;4.88;;;;;;;;;;4896322;29;20429;-65
2023/08/13 06:10:04;;;;;;;10.32;5.03;;;;;;;;;;4897329;29;20031;-64
2023/08/13 06:12:30;;;;;;;13.07;5.05;;;;;;;;;;4897267;29;20037;-69
2023/08/13 06:14:56;;;;;;;12.65;5.68;;;;;;;;;;4897013;29;20051;-63
2023/08/13 06:17:22;;;;;;;12.98;5.85;;;;;;;;;;4895295;29;20041;-63
2023/08/13 06:19:50;;;;;;;12.52;5.22;;;;;;;;;;4894601;29;20872;-63
2023/08/13 06:22:15;;;;;;;11.80;4.70;;;;;;;;;;4898382;29;20088;-63
2023/08/13 06:24:41;;;;;;;13.43;4.53;;;;;;;;;;4896959;29;20037;-63
2023/08/13 06:27:06;;;;;;;12.38;4.57;;;;;;;;;;4895706;29;20040;-63
2023/08/13 06:29:32;;;;;;;11.70;4.00;;;;;;;;;;4897354;29;20060;-69
2023/08/13 06:31:57;;;;;;;11.52;4.10;;;;;;;;;;4914920;29;20438;-63
2023/08/13 06:34:22;;;;;;;8.75;4.43;;;;;;;;;;4878460;29;20025;-63
2023/08/13 06:36:48;;;;;;;12.13;4.20;;;;;;;;;;4883195;29;20805;-63
2023/08/13 06:39:13;;;;;;;9.73;4.10;;;;;;;;;;4895376;29;20115;-63
2023/08/13 06:41:39;;;;;;;11.30;3.92;;;;;;;;;;4897097;29;20036;-63
2023/08/13 06:44:05;;;;;;;11.50;3.42;;;;;;;;;;4890635;29;20536;-63
2023/08/13 06:46:31;;;;;;;7.70;3.15;;;;;;;;;;4910284;29;20447;-68
2023/08/13 06:48:56;;;;;;;13.15;3.25;;;;;;;;;;4895359;29;20070;-63
2023/08/13 06:51:24;;;;;;;11.25;3.35;;;;;;;;;;4897316;29;20028;-63
2023/08/13 06:53:50;;;;;;;11.07;3.00;;;;;;;;;;4879683;29;20028;-63
2023/08/13 06:56:15;;;;;;;8.40;2.97;;;;;;;;;;4896197;29;20099;-63
2023/08/13 06:58:40;;;;;;;7.88;2.80;;;;;;;;;;4896950;29;20060;-64
2023/08/13 07:01:06;;;;;;;6.47;2.83;;;;;;;;;;4896886;29;20046;-63
2023/08/13 07:03:31;;;;;;;7.78;2.67;;;;;;;;;;4880565;29;20029;-68
2023/08/13 07:05:56;;;;;;;7.53;2.90;;;;;;;;;;4895222;29;20115;-64
2023/08/13 07:08:23;;;;;;;8.98;3.00;;;;;;;;;;4893411;29;20037;-63
2023/08/13 07:10:49;;;;;;;10.20;2.50;;;;;;;;;;4896458;29;20028;-63
2023/08/13 07:13:15;;;;;;;9.98;2.92;;;;;;;;;;4880603;29;20047;-63
2023/08/13 07:15:40;;;;;;;7.47;2.40;;;;;;;;;;4896530;29;20397;-63
2023/08/13 07:18:05;;;;;;;11.20;2.75;;;;;;;;;;4903662;29;20393;-63
2023/08/13 07:20:31;;;;;;;4.53;2.22;;;;;;;;;;4916044;29;20035;-64
2023/08/13 07:22:58;;;;;;;7.88;2.70;;;;;;;;;;4896268;29;20127;-64
2023/08/13 07:25:24;;;;;;;6.93;2.33;;;;;;;;;;4880756;29;20035;-63
2023/08/13 07:27:49;;;;;;;4.80;2.33;;;;;;;;;;4896548;29;20037;-64
2023/08/13 07:30:15;;;;;;;6.88;2.45;;;;;;;;;;4904331;29;20051;-64
2023/08/13 07:32:41;;;;;;;7.97;2.28;;;;;;;;;;4896016;29;20052;-64
2023/08/13 07:35:07;;;;;;;9.13;2.38;;;;;;;;;;4896336;29;20040;-66
2023/08/13 07:37:33;;;;;;;7.18;2.10;;;;;;;;;;4896055;29;20542;-69
2023/08/13 07:39:59;;;;;;;11.25;2.40;;;;;;;;;;4868335;29;20382;-62
2023/08/13 07:42:25;;;;;;;6.50;2.28;;;;;;;;;;4877925;29;20029;-63
2023/08/13 07:44:50;;;;;;;9.38;2.47;;;;;;;;;;4878127;29;20025;-64
2023/08/13 07:47:17;;;;;;;11.18;2.33;;;;;;;;;;4896484;29;20485;-64
2023/08/13 07:49:42;;;;;;;6.13;2.05;;;;;;;;;;4877382;29;20388;-63
2023/08/13 07:52:08;;;;;;;5.78;2.40;;;;;;;;;;4896316;29;20470;-64
2023/08/13 07:54:35;;;;;;;5.70;2.22;;;;;;;;;;4897025;29;20067;-69
2023/08/13 07:57:00;;;;;;;8.68;2.65;;;;;;;;;;4896291;29;20052;-63
2023/08/13 07:59:26;;;;;;;6.72;2.42;;;;;;;;;;4896139;29;20044;-63
2023/08/13 08:01:51;;;;;;;7.32;2.70;;;;;;;;;;4894466;29;20028;-63
2023/08/13 08:04:17;;;;;;;10.32;2.40;;;;;;;;;;4896970;29;20041;-63
2023/08/13 08:06:42;;;;;;;7.35;2.20;;;;;;;;;;4895946;29;20402;-63
2023/08/13 08:09:08;;;;;;;8.18;2.20;;;;;;;;;;4895788;29;20033;-63
2023/08/13 08:11:33;;;;;;;8.20;2.10;;;;;;;;;;4896899;29;20024;-63
2023/08/13 08:13:59;;;;;;;7.47;2.20;;;;;;;;;;4894371;29;20557;-62
2023/08/13 08:16:28;;;;;;;7.97;2.08;;;;;;;;;;4897156;29;20120;-59
2023/08/13 08:18:53;;;;;;;6.30;2.00;;;;;;;;;;4892794;29;20124;-59
2023/08/13 08:21:18;;;;;;;10.18;2.15;;;;;;;;;;4898225;29;20450;-58
2023/08/13 08:23:44;;;;;;;7.05;1.85;;;;;;;;;;4879502;29;20123;-60
2023/08/13 08:26:10;;;;;;;7.47;2.15;;;;;;;;;;4896565;29;20045;-59
2023/08/13 08:28:35;;;;;;;6.57;2.20;;;;;;;;;;4898727;29;20032;-59
2023/08/13 08:31:01;;;;;;;8.02;1.92;;;;;;;;;;4865419;29;20036;-59
2023/08/13 08:33:26;;;;;;;8.02;2.35;;;;;;;;;;4883905;29;20040;-59
2023/08/13 08:35:52;;;;;;;7.47;2.10;;;;;;;;;;4898461;29;20039;-59
2023/08/13 08:38:17;;;;;;;7.28;2.10;;;;;;;;;;4883762;29;20040;-59
2023/08/13 08:40:45;;;;;;;8.93;2.17;;;;;;;;;;4899339;29;20033;-59
2023/08/13 08:43:11;;;;;;;9.13;2.55;;;;;;;;;;4898851;29;20143;-59
2023/08/13 08:45:37;;;;;;;10.32;2.05;;;;;;;;;;4883166;29;20529;-59
2023/08/13 08:48:06;;;;;;;7.03;2.10;;;;;;;;;;4883058;29;20061;-59
2023/08/13 08:50:31;;;;;;;8.13;2.13;;;;;;;;;;4897345;29;20039;-59
2023/08/13 08:52:57;;;;;;;6.28;2.22;;;;;;;;;;4882045;29;20029;-59
2023/08/13 08:55:22;;;;;;;5.95;1.95;;;;;;;;;;4900008;29;20100;-59
2023/08/13 08:57:49;;;;;;;6.35;2.00;;;;;;;;;;4898910;29;20061;-59
2023/08/13 09:00:15;;;;;;;6.72;2.28;;;;;;;;;;4899803;29;20136;-59
2023/08/13 09:02:43;;;;;;;7.72;1.92;;;;;;;;;;4898389;29;20513;-59
2023/08/13 09:05:09;;;;;;;9.05;2.10;;;;;;;;;;4900066;29;20120;-59
2023/08/13 09:07:34;;;;;;;8.50;2.20;;;;;;;;;;4899889;29;20115;-59
2023/08/13 09:10:04;;;;;;;6.45;2.05;;;;;;;;;;4899320;29;20032;-59
2023/08/13 09:12:37;;;;;;;5.20;2.10;;;;;;;;;;4881666;29;20096;-59
2023/08/13 09:15:08;;;;;;;7.25;2.20;;;;;;;;;;4879928;29;20028;-59
2023/08/13 09:17:33;;;;;;;11.18;2.33;;;;;;;;;;4882918;29;20039;-59
2023/08/13 09:20:01;;;;;;;7.57;2.00;;;;;;;;;;4898974;29;20119;-59
2023/08/13 09:22:32;;;;;;;7.30;1.95;;;;;;;;;;4882151;29;20052;-59
2023/08/13 09:25:02;;;;;;;5.63;2.13;;;;;;;;;;4897323;29;20036;-57
2023/08/13 09:27:31;;;;;;;5.10;1.95;;;;;;;;;;4890927;29;20043;-59
2023/08/13 09:29:59;;;;;;;6.82;2.28;;;;;;;;;;4881810;29;20112;-59
2023/08/13 09:32:28;;;;;;;5.05;1.75;;;;;;;;;;4897401;29;20398;-59
2023/08/13 09:34:57;;;;;;;5.80;1.95;;;;;;;;;;4898666;29;20096;-59
2023/08/13 09:37:24;;;;;;;6.63;1.98;;;;;;;;;;4899157;29;20068;-59
2023/08/13 09:39:50;;;;;;;8.02;1.92;;;;;;;;;;4898751;29;20041;-59
2023/08/13 09:42:18;;;;;;;9.27;2.10;;;;;;;;;;4897137;29;20048;-59
2023/08/13 09:44:44;;;;;;;6.65;2.05;;;;;;;;;;4897781;29;20048;-59
2023/08/13 09:47:17;;;;;;;7.88;2.17;;;;;;;;;;4899360;29;20043;-59
2023/08/13 09:49:44;;;;;;;6.15;1.95;;;;;;;;;;4897849;29;20493;-60
2023/08/13 09:52:11;;;;;;;5.40;2.30;;;;;;;;;;4898051;29;20035;-60
2023/08/13 09:54:48;;;;;;;6.57;1.90;;;;;;;;;;4899078;29;20393;-60
2023/08/13 09:57:20;;;;;;;6.63;1.95;;;;;;;;;;4899001;29;20056;-60
2023/08/13 09:59:46;;;;;;;5.03;1.83;;;;;;;;;;4897457;29;20085;-60
2023/08/13 10:02:14;;;;;;;6.40;1.75;;;;;;;;;;4899066;29;20041;-59
2023/08/13 10:04:40;;;;;;;5.57;1.70;;;;;;;;;;4898947;29;20033;-59
2023/08/13 10:07:06;;;;;;;4.57;1.60;;;;;;;;;;4898379;29;20530;-59
2023/08/13 10:09:32;;;;;;;5.43;1.58;;;;;;;;;;4899015;29;20039;-59
2023/08/13 10:11:59;;;;;;;5.30;1.70;;;;;;;;;;4896150;29;20108;-59
2023/08/13 10:14:26;;;;;;;5.65;1.60;;;;;;;;;;4898924;29;20036;-59
2023/08/13 10:16:51;;;;;;;5.88;1.92;;;;;;;;;;4898193;29;20040;-60
2023/08/13 10:19:17;;;;;;;5.45;1.90;;;;;;;;;;4898474;29;20033;-60
2023/08/13 10:21:54;;;;;;;5.07;1.80;;;;;;;;;;4896200;29;20037;-59
2023/08/13 10:24:23;;;;;;;4.80;1.55;;;;;;;;;;4898523;29;20082;-59
2023/08/13 10:26:48;;;;;;;5.20;1.60;;;;;;;;;;4897316;29;20447;-59
2023/08/13 10:29:18;;;;;;;8.55;2.35;;;;;;;;;;4898319;29;20036;-59
2023/08/13 10:31:54;;;;;;;5.25;1.45;;;;;;;;;;4893798;29;20036;-60
2023/08/13 10:34:37;;;;;;;2.97;1.60;;;;;;;;;;4891910;29;20481;-59
2023/08/13 10:37:02;;;;;;;5.60;1.60;;;;;;;;;;4896357;29;20036;-60
2023/08/13 10:39:36;;;;;;;3.92;1.60;;;;;;;;;;4897496;29;20043;-59
2023/08/13 10:42:03;;;;;;;8.73;1.65;;;;;;;;;;4880274;29;20167;-59
2023/08/13 10:44:32;;;;;;;5.93;1.90;;;;;;;;;;4896361;29;20115;-59
2023/08/13 10:46:58;;;;;;;5.70;1.85;;;;;;;;;;4880401;29;20032;-59
2023/08/13 10:49:26;;;;;;;6.65;1.65;;;;;;;;;;4880134;29;20127;-59
2023/08/13 10:51:52;;;;;;;5.70;1.52;;;;;;;;;;4862664;29;20508;-59
2023/08/13 10:54:17;;;;;;;5.95;1.70;;;;;;;;;;4896577;29;20092;-59
2023/08/13 10:56:51;;;;;;;5.20;1.60;;;;;;;;;;4897361;29;20120;-58
2023/08/13 10:59:17;;;;;;;5.25;1.70;;;;;;;;;;4897774;29;20040;-59
2023/08/13 11:02:11;;;;;;;5.45;1.85;;;;;;;;;;4880921;29;20418;-58
2023/08/13 11:04:36;;;;;;;5.30;1.80;;;;;;;;;;4878756;29;20037;-59
2023/08/13 11:07:02;;;;;;;7.25;2.10;;;;;;;;;;4877795;29;20044;-59
2023/08/13 11:09:29;;;;;;;4.05;1.70;;;;;;;;;;4878485;29;20040;-59
2023/08/13 11:11:55;;;;;;;6.03;1.70;;;;;;;;;;4877911;29;20443;-60
2023/08/13 11:14:21;;;;;;;7.45;1.80;;;;;;;;;;4894011;29;20485;-60
2023/08/13 11:16:47;;;;;;;6.75;1.67;;;;;;;;;;4896335;29;20032;-60
2023/08/13 11:19:15;;;;;;;5.88;1.67;;;;;;;;;;4897052;29;20127;-59
2023/08/13 11:21:42;;;;;;;4.20;1.80;;;;;;;;;;4897356;29;20040;-60
2023/08/13 11:24:12;;;;;;;6.80;1.88;;;;;;;;;;4895285;29;20104;-60
2023/08/13 11:26:39;;;;;;;5.87;1.90;;;;;;;;;;4896485;29;20036;-60
2023/08/13 11:29:05;;;;;;;5.05;1.95;;;;;;;;;;4896235;29;20115;-60
2023/08/13 11:31:33;;;;;;;5.78;1.80;;;;;;;;;;4880379;29;20033;-59
2023/08/13 11:33:58;;;;;;;5.07;1.90;;;;;;;;;;4893007;29;20033;-60
2023/08/13 11:36:24;;;;;;;5.38;1.83;;;;;;;;;;4896318;29;20041;-59
2023/08/13 11:38:49;;;;;;;6.78;1.92;;;;;;;;;;4879552;29;20441;-60
2023/08/13 11:41:15;;;;;;;6.32;2.30;;;;;;;;;;4894583;29;20047;-60
2023/08/13 11:43:42;;;;;;;5.95;2.00;;;;;;;;;;4894589;29;20033;-60
2023/08/13 11:46:10;;;;;;;7.80;2.25;;;;;;;;;;4896149;29;20047;-60
2023/08/13 11:48:37;;;;;;;5.40;2.10;;;;;;;;;;4896783;29;20079;-59
2023/08/13 11:51:24;;;;;;;6.30;2.10;;;;;;;;;;4894608;29;20111;-60
2023/08/13 11:53:49;;;;;;;5.47;2.03;;;;;;;;;;4894724;29;20048;-60
2023/08/13 11:56:16;;;;;;;5.05;1.92;;;;;;;;;;4896348;29;20036;-60
2023/08/13 11:58:42;;;;;;;6.40;2.10;;;;;;;;;;4896327;29;20090;-59
2023/08/13 12:01:12;;;;;;;5.07;1.80;;;;;;;;;;4896025;29;20025;-59
2023/08/13 12:03:41;;;;;;;7.40;2.38;;;;;;;;;;4895477;29;20442;-59
2023/08/13 12:06:07;;;;;;;10.32;2.20;;;;;;;;;;4877106;29;20417;-59
2023/08/13 12:08:34;;;;;;;7.65;2.10;;;;;;;;;;4880139;29;20032;-59
2023/08/13 12:10:59;;;;;;;5.30;1.90;;;;;;;;;;4895982;29;20028;-59
2023/08/13 12:13:25;;;;;;;5.05;2.40;;;;;;;;;;4896628;29;20415;-59
2023/08/13 12:15:51;;;;;;;5.38;2.20;;;;;;;;;;4895389;29;20043;-60
2023/08/13 12:18:17;;;;;;;6.47;2.00;;;;;;;;;;4896157;29;20040;-59
2023/08/13 12:20:43;;;;;;;8.10;2.22;;;;;;;;;;4896653;29;20044;-59
2023/08/13 12:23:08;;;;;;;6.07;2.38;;;;;;;;;;4895727;29;20037;-59
2023/08/13 12:25:34;;;;;;;5.95;2.35;;;;;;;;;;4895242;29;20096;-59
2023/08/13 12:27:59;;;;;;;8.90;2.55;;;;;;;;;;4893178;29;20451;-59
2023/08/13 12:30:25;;;;;;;6.70;2.17;;;;;;;;;;4895727;29;20044;-60
2023/08/13 12:32:50;;;;;;;6.78;2.40;;;;;;;;;;4896199;29;20183;-59
2023/08/13 12:35:15;;;;;;;8.73;2.30;;;;;;;;;;4895772;29;20066;-59
2023/08/13 12:37:41;;;;;;;7.18;2.17;;;;;;;;;;4878878;29;20028;-59
2023/08/13 12:40:10;;;;;;;6.95;2.17;;;;;;;;;;4895381;29;20115;-59
2023/08/13 12:42:36;;;;;;;7.53;2.40;;;;;;;;;;4896491;29;20112;-59
2023/08/13 12:45:06;;;;;;;6.82;2.20;;;;;;;;;;4894282;29;20036;-60
2023/08/13 12:47:35;;;;;;;4.07;2.10;;;;;;;;;;4894022;29;20458;-59
2023/08/13 12:50:02;;;;;;;8.05;2.67;;;;;;;;;;4862308;29;20123;-59
2023/08/13 12:52:28;;;;;;;6.28;2.22;;;;;;;;;;4896124;29;20564;-60
2023/08/13 12:54:53;;;;;;;8.00;2.13;;;;;;;;;;4895583;29;20068;-59
2023/08/13 12:57:18;;;;;;;8.13;2.30;;;;;;;;;;4891907;29;20104;-60
2023/08/13 12:59:44;;;;;;;5.78;2.40;;;;;;;;;;4896335;29;20444;-59
2023/08/13 13:02:09;;;;;;;7.90;2.20;;;;;;;;;;4895246;29;20107;-59
2023/08/13 13:04:35;;;;;;;8.20;2.28;;;;;;;;;;4895982;29;20128;-60
2023/08/13 13:07:00;;;;;;;5.70;2.50;;;;;;;;;;4892470;29;20147;-60
2023/08/13 13:09:28;;;;;;;9.23;2.60;;;;;;;;;;4895607;29;20064;-59
2023/08/13 13:11:54;;;;;;;6.15;2.20;;;;;;;;;;4895669;29;20471;-60
2023/08/13 13:14:19;;;;;;;6.90;2.20;;;;;;;;;;4896101;29;20043;-59
2023/08/13 13:16:45;;;;;;;8.02;2.40;;;;;;;;;;4895534;29;20071;-60
2023/08/13 13:19:10;;;;;;;7.22;2.20;;;;;;;;;;4897670;29;20119;-59
2023/08/13 13:21:35;;;;;;;5.20;2.30;;;;;;;;;;4899751;29;20037;-59
2023/08/13 13:24:01;;;;;;;5.57;2.28;;;;;;;;;;4899069;29;20036;-59
2023/08/13 13:26:26;;;;;;;5.43;2.05;;;;;;;;;;4897528;29;20037;-59
2023/08/13 13:28:52;;;;;;;4.95;2.20;;;;;;;;;;4899720;29;20043;-59
2023/08/13 13:31:17;;;;;;;6.38;2.08;;;;;;;;;;4898346;29;20371;-59
2023/08/13 13:33:42;;;;;;;7.57;2.60;;;;;;;;;;4899290;29;20112;-59
2023/08/13 13:36:08;;;;;;;5.82;2.40;;;;;;;;;;4897690;29;20458;-59
2023/08/13 13:38:34;;;;;;;6.57;2.40;;;;;;;;;;4897697;29;20059;-59
2023/08/13 13:41:00;;;;;;;7.15;2.20;;;;;;;;;;4876639;29;20406;-62
2023/08/13 13:43:26;;;;;;;6.53;2.38;;;;;;;;;;4879434;29;20525;-62
2023/08/13 13:45:51;;;;;;;5.05;2.20;;;;;;;;;;4899082;29;20124;-61
2023/08/13 13:48:16;;;;;;;6.70;2.30;;;;;;;;;;4880222;29;20352;-62
2023/08/13 13:50:42;;;;;;;6.75;2.22;;;;;;;;;;4898714;29;20046;-61
2023/08/13 13:53:07;;;;;;;6.15;2.30;;;;;;;;;;4900908;29;20040;-62
2023/08/13 13:55:33;;;;;;;3.92;2.10;;;;;;;;;;4902949;29;20033;-61
2023/08/13 13:57:58;;;;;;;5.63;2.25;;;;;;;;;;4912098;29;20071;-64
2023/08/13 14:00:24;;;;;;;4.70;2.22;;;;;;;;;;4909479;29;20040;-61
2023/08/13 14:02:49;;;;;;;4.55;2.00;;;;;;;;;;4911190;29;20041;-62
2023/08/13 14:05:15;;;;;;;8.90;2.30;;;;;;;;;;4899691;29;20532;-62
2023/08/13 14:07:41;;;;;;;4.70;2.30;;;;;;;;;;4898568;29;20438;-64
2023/08/13 14:10:07;;;;;;;5.80;2.17;;;;;;;;;;4897419;29;20068;-64
2023/08/13 14:12:33;;;;;;;5.65;2.30;;;;;;;;;;4914023;29;20071;-63
2023/08/13 14:15:01;;;;;;;5.93;2.30;;;;;;;;;;4881084;29;20382;-65
2023/08/13 14:17:27;;;;;;;5.57;2.10;;;;;;;;;;4898269;29;20083;-63
2023/08/13 14:19:52;;;;;;;7.75;2.35;;;;;;;;;;4898842;29;20037;-62
2023/08/13 14:22:18;;;;;;;6.25;2.20;;;;;;;;;;4896559;29;20036;-63
2023/08/13 14:24:43;;;;;;;7.95;2.30;;;;;;;;;;4907562;29;20059;-63
2023/08/13 14:27:09;;;;;;;7.90;2.85;;;;;;;;;;4889231;29;20453;-63
2023/08/13 14:29:37;;;;;;;5.38;2.50;;;;;;;;;;4914507;29;20036;-65
2023/08/13 14:32:03;;;;;;;5.15;2.13;;;;;;;;;;4900236;29;20033;-63